Time;durP1;ratioP1;P1;durP2;ratioP2;P2;SDS_P1;SDS_P2;PMS_P1;PMS_P2;Temp;Humidity;BMP_temperature;BMP_pressure;BME280_temperature;BME280_humidity;BME280_pressure;Samples;Min_cycle;Max_cycle;Signal;HPM_P1;HPM_P2
2023/12/11 05:42:22;;;;;;;5.40;4.20;;;;;;;0.57;100.00;100338.48;106805;1280;23122;-56
2023/12/11 05:44:49;;;;;;;4.70;3.60;;;;;;;0.58;100.00;100328.52;109716;1274;23025;-47
2023/12/11 05:47:15;;;;;;;4.50;3.90;;;;;;;0.59;100.00;100329.64;109859;1271;22515;-47
2023/12/11 05:49:42;;;;;;;6.00;3.90;;;;;;;0.61;100.00;100331.23;109956;1271;23288;-55
2023/12/11 05:52:09;;;;;;;5.00;4.10;;;;;;;0.62;100.00;100331.97;109616;1275;23147;-48
2023/12/11 05:54:36;;;;;;;5.80;4.10;;;;;;;0.64;100.00;100333.25;109835;1275;22319;-47
2023/12/11 05:57:03;;;;;;;5.70;4.20;;;;;;;0.65;100.00;100337.27;109867;1271;23090;-56
2023/12/11 05:59:30;;;;;;;7.60;4.50;;;;;;;0.67;100.00;100338.70;109838;1275;22357;-55
2023/12/11 06:01:56;;;;;;;9.00;4.70;;;;;;;0.70;100.00;100338.98;109857;1276;22399;-56
2023/12/11 06:04:23;;;;;;;7.50;4.90;;;;;;;0.74;100.00;100342.41;109840;1281;22264;-55
2023/12/11 06:06:50;;;;;;;9.40;5.00;;;;;;;0.78;100.00;100340.86;109807;1275;23287;-48
2023/12/11 06:09:17;;;;;;;6.20;5.00;;;;;;;0.81;100.00;100337.52;109840;1262;22404;-47
2023/12/11 06:11:44;;;;;;;8.20;5.20;;;;;;;0.84;100.00;100337.98;109850;1271;22385;-47
2023/12/11 06:14:11;;;;;;;7.50;4.70;;;;;;;0.87;100.00;100336.58;109736;1270;22709;-55
2023/12/11 06:16:41;;;;;;;6.60;4.40;;;;;;;0.93;100.00;100333.23;109749;1274;22358;-55
2023/12/11 06:19:10;;;;;;;6.40;4.80;;;;;;;0.98;100.00;100341.32;109357;1274;22370;-48
2023/12/11 06:21:40;;;;;;;6.10;4.40;;;;;;;1.03;100.00;100342.55;109298;1275;23065;-47
2023/12/11 06:24:08;;;;;;;6.40;4.90;;;;;;;1.09;100.00;100340.67;109262;1279;22465;-47
2023/12/11 06:26:36;;;;;;;5.90;4.70;;;;;;;1.11;100.00;100342.84;109444;1277;22413;-48
2023/12/11 06:29:05;;;;;;;5.90;5.20;;;;;;;1.12;100.00;100340.45;109118;1273;23009;-48
2023/12/11 06:31:33;;;;;;;6.60;4.90;;;;;;;1.14;100.00;100339.86;109129;1275;22408;-48
2023/12/11 06:34:03;;;;;;;5.90;4.30;;;;;;;1.17;100.00;100340.46;109181;1276;23060;-55
2023/12/11 06:36:42;;;;;;;5.80;4.50;;;;;;;1.17;100.00;100347.04;109502;1275;22311;-55
2023/12/11 06:40:10;;;;;;;5.70;4.70;;;;;;;1.19;100.00;100344.34;109336;1274;23619;-46
2023/12/11 06:43:39;;;;;;;6.50;4.90;;;;;;;1.19;100.00;100348.81;109506;1274;23382;-55
2023/12/11 06:46:06;;;;;;;7.40;5.00;;;;;;;1.19;100.00;100349.49;109502;1274;22562;-55
2023/12/11 06:49:24;;;;;;;6.20;4.90;;;;;;;1.18;100.00;100349.13;109610;1281;22463;-47
2023/12/11 06:52:23;;;;;;;7.00;4.80;;;;;;;1.18;100.00;100350.17;109409;1278;22381;-47
2023/12/11 06:59:34;;;;;;;7.40;4.80;;;;;;;1.29;100.00;100327.88;109550;1275;22975;-48
2023/12/11 07:02:32;;;;;;;7.30;5.20;;;;;;;1.34;100.00;100320.16;109634;1277;22416;-47
2023/12/11 07:05:01;;;;;;;5.10;4.20;;;;;;;1.40;100.00;100329.17;109128;1275;22525;-49
2023/12/11 07:08:06;;;;;;;7.40;4.80;;;;;;;1.45;100.00;100332.27;108915;1274;23401;-57
2023/12/11 07:11:03;;;;;;;4.70;4.10;;;;;;;1.45;100.00;100328.13;109493;1277;22431;-55
2023/12/11 07:13:36;;;;;;;7.10;4.00;;;;;;;1.46;100.00;100327.32;108959;1275;22891;-46
2023/12/11 07:16:41;;;;;;;5.00;3.90;;;;;;;1.47;100.00;100326.52;109247;1274;22564;-55
2023/12/11 07:19:56;;;;;;;6.10;4.70;;;;;;;1.50;100.00;100319.57;107711;1278;25428;-47
2023/12/11 07:22:33;;;;;;;6.70;4.50;;;;;;;1.53;100.00;100318.46;108515;1271;22401;-48
2023/12/11 07:25:00;;;;;;;4.40;3.80;;;;;;;1.56;100.00;100313.25;109418;1268;23105;-54
2023/12/11 07:27:27;;;;;;;5.20;4.10;;;;;;;1.58;100.00;100323.31;109374;1275;22616;-54
2023/12/11 07:30:00;;;;;;;4.90;4.20;;;;;;;1.58;100.00;100317.63;109035;1278;22209;-53
2023/12/11 07:32:30;;;;;;;9.00;4.30;;;;;;;1.60;100.00;100319.94;109682;1275;23218;-54
2023/12/11 07:34:59;;;;;;;5.00;3.90;;;;;;;1.60;100.00;100324.73;108976;1275;22452;-47
2023/12/11 07:37:32;;;;;;;4.50;3.80;;;;;;;1.56;100.00;100324.75;108921;1275;22557;-54
2023/12/11 07:40:29;;;;;;;5.40;4.30;;;;;;;1.51;100.00;100323.92;108702;1271;22901;-53
2023/12/11 07:42:56;;;;;;;5.40;4.70;;;;;;;1.53;100.00;100318.64;109010;1273;22540;-47
2023/12/11 07:45:24;;;;;;;7.20;4.50;;;;;;;1.56;100.00;100307.20;109084;1276;22385;-46
2023/12/11 07:47:50;;;;;;;6.80;4.70;;;;;;;1.60;100.00;100306.67;109012;1271;22627;-54
2023/12/11 07:50:20;;;;;;;6.80;5.20;;;;;;;1.65;100.00;100306.16;109203;1275;22542;-48
2023/12/11 07:52:58;;;;;;;7.90;6.20;;;;;;;1.70;100.00;100301.04;110138;1276;21908;31
2023/12/11 07:55:31;;;;;;;6.70;5.00;;;;;;;1.75;100.00;100294.67;108265;1272;23269;-47
2023/12/11 07:58:06;;;;;;;7.40;5.20;;;;;;;1.77;100.00;100292.69;109167;1272;23103;-47
2023/12/11 08:01:00;;;;;;;6.20;4.80;;;;;;;1.77;100.00;100290.45;108667;1272;22910;-46
2023/12/11 08:04:06;;;;;;;;;;;;;;;1.78;100.00;100294.77;108771;1272;23750;-54
2023/12/11 08:07:04;;;;;;;;;;;;;;;1.75;100.00;100298.11;108469;1275;22499;-46
2023/12/11 08:10:11;;;;;;;;;;;;;;;1.75;100.00;100292.43;108478;1272;23283;-54
2023/12/11 08:13:02;;;;;;;;;;;;;;;1.77;100.00;100289.59;108374;1276;25482;-54
2023/12/11 08:16:06;;;;;;;;;;;;;;;1.75;100.00;100286.42;108841;1272;22591;-54
2023/12/11 08:19:32;;;;;;;;;;;;;;;1.72;100.00;100285.42;108214;1273;22486;-46
2023/12/11 08:22:01;;;;;;;;;;;;;;;1.72;100.00;100288.88;109458;1272;23639;-48
2023/12/11 08:24:35;;;;;;;;;;;;;;;1.73;100.00;100285.29;108901;1272;22550;-54
2023/12/11 08:27:07;;;;;;;;;;;;;;;1.70;100.00;100288.48;109342;1262;22567;-47
2023/12/11 08:29:34;;;;;;;;;;;;;;;1.69;100.00;100283.80;109749;1268;22481;-52
2023/12/11 08:32:02;;;;;;;;;;;;;;;1.66;100.00;100282.64;109218;1273;22515;-46
2023/12/11 08:34:29;;;;;;;;;;;;;;;1.60;100.00;100283.46;109148;1264;23860;-54
2023/12/11 08:36:57;;;;;;;;;;;;;;;1.55;100.00;100273.67;109594;1275;23342;-47
2023/12/11 08:39:25;;;;;;;;;;;;;;;1.55;100.00;100270.73;108087;1275;22552;-54
2023/12/11 08:41:57;;;;;;;;;;;;;;;1.54;100.00;100271.89;108802;1275;23049;-46
2023/12/11 08:44:32;;;;;;;;;;;;;;;1.53;100.00;100273.08;109395;1275;23074;-54
2023/12/11 08:47:04;;;;;;;;;;;;;;;1.50;100.00;100265.91;109316;1278;22412;-47
2023/12/11 08:49:31;;;;;;;;;;;;;;;1.48;100.00;100263.27;109615;1273;22579;-48
2023/12/11 08:52:00;;;;;;;;;;;;;;;1.48;100.00;100261.05;108770;1271;22537;-55
2023/12/11 08:54:27;;;;;;;;;;;;;;;1.51;100.00;100248.95;109615;1262;22931;-47
2023/12/11 08:56:54;;;;;;;;;;;;;;;1.55;100.00;100240.15;109658;1275;22507;-55
2023/12/11 08:59:20;;;;;;;;;;;;;;;1.62;100.00;100234.52;109649;1269;23573;-47
2023/12/11 09:01:47;;;;;;;;;;;;;;;1.65;100.00;100236.90;109560;1265;22813;-55
2023/12/11 09:04:14;;;;;;;;;;;;;;;1.70;100.00;100239.46;109629;1273;23268;-55
2023/12/11 09:06:41;;;;;;;;;;;;;;;1.72;100.00;100248.98;109729;1265;23198;-54
2023/12/11 09:09:07;;;;;;;;;;;;;;;1.73;100.00;100254.86;109671;1272;22428;-55
2023/12/11 09:11:37;;;;;;;;;;;;;;;1.75;100.00;100248.25;109753;1264;23459;-53
2023/12/11 09:14:04;;;;;;;;;;;;;;;1.82;100.00;100239.52;109810;1260;22977;-55
2023/12/11 09:16:31;;;;;;;;;;;;;;;1.87;100.00;100243.34;109857;1273;22512;-56
2023/12/11 09:18:58;;;;;;;;;;;;;;;1.91;100.00;100241.73;109835;1272;22884;-55
2023/12/11 09:21:25;;;;;;;;;;;;;;;1.94;100.00;100237.00;108956;1279;22666;-48
2023/12/11 09:23:52;;;;;;;;;;;;;;;1.95;100.00;100234.80;109710;1269;22455;-46
2023/12/11 09:26:19;;;;;;;;;;;;;;;2.02;100.00;100232.29;109723;1266;23286;-54
2023/12/11 09:28:45;;;;;;;;;;;;;;;2.10;100.00;100220.70;109757;1272;22496;-54
2023/12/11 09:31:19;;;;;;;;;;;;;;;2.14;100.00;100218.22;109663;1273;22840;-55
2023/12/11 09:33:46;;;;;;;;;;;;;;;2.16;100.00;100221.73;109750;1273;22439;-55
2023/12/11 09:36:13;;;;;;;;;;;;;;;2.18;100.00;100227.66;109361;1269;22498;-48
2023/12/11 09:38:42;;;;;;;;;;;;;;;2.18;100.00;100227.32;109663;1274;22422;-47
2023/12/11 09:41:09;;;;;;;;;;;;;;;2.21;100.00;100226.90;109730;1273;23322;-47
2023/12/11 09:43:36;;;;;;;;;;;;;;;2.25;100.00;100230.80;109633;1271;22889;-53
2023/12/11 09:46:06;;;;;;;;;;;;;;;2.29;100.00;100221.30;109816;1271;22745;-47
2023/12/11 09:48:34;;;;;;;;;;;;;;;2.33;100.00;100217.11;109214;1278;22920;-46
2023/12/11 09:51:01;;;;;;;;;;;;;;;2.39;100.00;100219.73;109495;1273;22519;-46
2023/12/11 09:53:30;;;;;;;;;;;;;;;2.43;100.00;100211.58;108653;1272;22497;-52
2023/12/11 09:55:57;;;;;;;;;;;;;;;2.41;100.00;100208.43;109679;1275;22451;-52
2023/12/11 09:58:24;;;;;;;;;;;;;;;2.40;100.00;100207.36;109718;1272;23381;-53
2023/12/11 10:00:51;;;;;;;;;;;;;;;2.39;100.00;100204.25;109745;1276;22472;-53
2023/12/11 10:03:18;;;;;;;;;;;;;;;2.37;100.00;100204.00;109222;1281;22527;-53
2023/12/11 10:05:45;;;;;;;;;;;;;;;2.35;100.00;100201.70;109517;1272;22494;-47
2023/12/11 10:08:13;;;;;;;;;;;;;;;2.35;100.00;100200.15;109615;1279;23371;-45
2023/12/11 10:10:41;;;;;;;;;;;;;;;2.39;100.00;100202.34;108682;1279;23308;-53
2023/12/11 10:13:08;;;;;;;;;;;;;;;2.48;100.00;100201.92;109734;1275;22459;-53
2023/12/11 10:15:35;;;;;;;;;;;;;;;2.53;100.00;100208.29;109443;1271;22539;-47
2023/12/11 10:18:03;;;;;;;;;;;;;;;2.49;100.00;100205.40;109765;1269;23329;-47
2023/12/11 10:20:30;;;;;;;;;;;;;;;2.42;100.00;100208.96;109828;1274;22436;-54
2023/12/11 10:22:58;;;;;;;;;;;;;;;2.33;100.00;100208.19;109871;1265;22460;-46
2023/12/11 10:25:30;;;;;;;;;;;;;;;2.27;100.00;100200.74;109717;1272;119564;-53
2023/12/11 10:28:10;;;;;;;;;;;;;;;2.26;100.00;100202.96;109570;1275;22493;-45
2023/12/11 10:30:50;;;;;;;;;;;;;;;2.31;100.00;100204.84;108827;1270;22623;-48
2023/12/11 10:33:18;;;;;;;;;;;;;;;2.34;100.00;100190.14;109630;1273;22548;-46
2023/12/11 10:35:47;;;;;;;;;;;;;;;2.36;100.00;100182.27;109685;1273;22437;-46
2023/12/11 10:38:21;;;;;;;;;;;;;;;2.34;100.00;100183.94;109602;1273;22548;-45
2023/12/11 10:40:51;;;;;;;;;;;;;;;2.32;100.00;100185.08;109539;1266;22418;-44
2023/12/11 10:43:20;;;;;;;;;;;;;;;2.29;100.00;100180.86;109251;1272;22520;-53
2023/12/11 10:45:49;;;;;;;;;;;;;;;2.26;100.00;100169.58;109591;1272;22517;-44
2023/12/11 10:48:20;;;;;;;;;;;;;;;2.28;100.00;100165.84;109191;1272;22495;-45
2023/12/11 10:50:49;;;;;;;;;;;;;;;2.28;100.00;100165.35;109652;1273;22447;-52
2023/12/11 10:53:16;;;;;;;;;;;;;;;2.29;100.00;100162.95;109446;1272;22478;-45
2023/12/11 10:55:43;;;;;;;;;;;;;;;2.27;100.00;100163.75;109529;1272;22417;-47
2023/12/11 10:58:10;;;;;;;;;;;;;;;2.22;100.00;100163.27;109686;1272;22784;-47
2023/12/11 11:00:37;;;;;;;;;;;;;;;2.18;100.00;100160.02;109687;1275;23194;-46
2023/12/11 11:03:04;;;;;;;;;;;;;;;2.13;100.00;100161.77;109723;1275;22579;-54
2023/12/11 11:05:31;;;;;;;;;;;;;;;2.10;100.00;100153.77;109544;1275;22446;-44
2023/12/11 11:08:06;;;;;;;;;;;;;;;2.07;100.00;100148.84;109721;1275;22422;-55
2023/12/11 11:10:34;;;;;;;;;;;;;;;2.02;100.00;100139.04;109858;1271;23242;-54
2023/12/11 11:13:07;;;;;;;;;;;;;;;2.00;100.00;100138.80;109216;1279;23247;-56
2023/12/11 11:15:34;;;;;;;;;;;;;;;1.99;100.00;100128.80;109631;1272;23208;-47
2023/12/11 11:18:02;;;;;;;;;;;;;;;1.97;100.00;100127.19;109608;1274;22607;-47
2023/12/11 11:20:30;;;;;;;;;;;;;;;1.95;100.00;100124.54;109848;1272;22443;-47
2023/12/11 11:23:15;;;;;;;;;;;;;;;1.94;100.00;100121.75;109657;1272;22487;-54
2023/12/11 11:25:50;;;;;;;;;;;;;;;1.99;100.00;100123.80;109588;1275;22486;-54
2023/12/11 11:28:50;;;;;;;;;;;;;;;2.00;100.00;100124.18;109613;1280;22546;-55
2023/12/11 11:31:17;;;;;;;;;;;;;;;2.01;100.00;100124.90;108981;1283;22820;-55
2023/12/11 11:33:56;;;;;;;;;;;;;;;2.04;100.00;100127.77;109064;1280;23112;-55
2023/12/11 11:36:43;;;;;;;;;;;;;;;2.03;100.00;100124.31;108855;1281;22638;-47
2023/12/11 11:39:19;;;;;;;;;;;;;;;2.03;100.00;100119.50;108550;1284;22511;-54
2023/12/11 11:41:46;;;;;;;;;;;;;;;2.08;100.00;100108.27;108991;1281;22558;-46
2023/12/11 11:44:14;;;;;;;;;;;;;;;2.16;100.00;100098.00;109023;1281;22449;-45
2023/12/11 11:46:47;;;;;;;;;;;;;;;2.19;100.00;100088.82;108893;1281;22420;-45
2023/12/11 11:49:29;;;;;;;;;;;;;;;2.26;100.00;100089.19;109018;1284;22574;-45
2023/12/11 11:51:56;;;;;;;;;;;;;;;2.31;100.00;100088.84;109052;1286;22439;-52
2023/12/11 11:54:26;;;;;;;;;;;;;;;2.33;100.00;100095.27;108265;1281;22547;-45
2023/12/11 11:56:53;;;;;;;;;;;;;;;2.33;100.00;100102.69;108665;1284;22763;-46
2023/12/11 11:59:19;;;;;;;;;;;;;;;2.33;100.00;100101.30;109087;1281;23297;-53
2023/12/11 12:01:56;;;;;;;;;;;;;;;2.32;100.00;100104.18;108581;1280;22520;-51
2023/12/11 12:04:27;;;;;;;;;;;;;;;2.30;100.00;100107.21;109162;1281;22518;-52
2023/12/11 12:06:55;;;;;;;;;;;;;;;2.24;100.00;100104.10;109261;1274;22524;-52
2023/12/11 12:09:23;;;;;;;;;;;;;;;2.19;100.00;100095.70;109430;1275;22506;-47
2023/12/11 12:11:54;;;;;;;;;;;;;;;2.16;100.00;100097.83;109384;1262;23051;-52
2023/12/11 12:14:32;;;;;;;;;;;;;;;2.10;100.00;100097.66;108088;1275;22527;-51
2023/12/11 12:16:59;;;;;;;;;;;;;;;2.07;100.00;100096.17;109599;1273;22584;-52
2023/12/11 12:19:32;;;;;;;;;;;;;;;2.05;100.00;100095.11;108789;1262;23410;-52
2023/12/11 12:22:04;;;;;;;;;;;;;;;2.04;100.00;100098.35;109641;1274;23220;-53
2023/12/11 12:24:40;;;;;;;;;;;;;;;2.09;100.00;100102.11;108899;1275;23387;-53
2023/12/11 12:27:09;;;;;;;;;;;;;;;2.15;100.00;100104.36;109544;1277;23051;-47
2023/12/11 12:29:36;;;;;;;;;;;;;;;2.21;100.00;100108.33;109588;1272;22770;-51
2023/12/11 12:32:03;;;;;;;;;;;;;;;2.25;100.00;100109.98;109573;1275;22431;-52
2023/12/11 12:34:30;;;;;;;;;;;;;;;2.26;100.00;100108.14;109749;1272;22651;-46
2023/12/11 12:36:58;;;;;;;;;;;;;;;2.27;100.00;100107.12;109493;1272;26484;-52
2023/12/11 12:39:25;;;;;;;;;;;;;;;2.23;100.00;100106.67;109571;1272;22581;-48
2023/12/11 12:41:52;;;;;;;;;;;;;;;2.21;100.00;100105.05;109614;1272;22818;-46
2023/12/11 12:44:21;;;;;;;;;;;;;;;2.14;100.00;100106.38;109725;1274;22518;-47
2023/12/11 12:46:48;;;;;;;;;;;;;;;2.08;100.00;100098.98;109704;1279;22454;-46
2023/12/11 12:49:16;;;;;;;;;;;;;;;2.03;100.00;100101.59;109815;1269;22480;-51
2023/12/11 12:51:50;;;;;;;;;;;;;;;1.98;100.00;100099.52;109870;1273;22416;-51
2023/12/11 12:54:17;;;;;;;;;;;;;;;1.95;100.00;100095.30;109718;1273;22520;-51
2023/12/11 12:56:55;;;;;;;;;;;;;;;1.93;100.00;100084.92;109185;1268;23401;-51
2023/12/11 12:59:30;;;;;;;;;;;;;;;1.94;100.00;100089.09;109847;1265;22491;-52
2023/12/11 13:01:57;;;;;;;;;;;;;;;1.94;100.00;100099.58;109170;1272;22491;-46
2023/12/11 13:04:23;;;;;;;;;;;;;;;1.90;100.00;100106.85;109957;1278;22968;-45
2023/12/11 13:06:50;;;;;;;;;;;;;;;1.84;100.00;100106.82;109891;1269;22423;-45
2023/12/11 13:09:27;;;;;;;;;;;;;;;1.81;100.00;100098.14;109312;1274;23390;-45
2023/12/11 13:11:54;;;;;;;;;;;;;;;1.79;100.00;100098.05;109662;1272;22423;-47
2023/12/11 13:14:23;;;;;;;;;;;;;;;1.78;100.00;100102.66;109189;1273;22496;-53
2023/12/11 13:16:55;;;;;;;;;;;;;;;1.75;100.00;100111.52;109538;1279;23340;-45
2023/12/11 13:19:23;;;;;;;;;;;;;;;1.70;100.00;100110.31;109842;1273;22495;-47
2023/12/11 13:21:51;;;;;;;;;;;;;;;1.67;100.00;100110.04;109353;1272;23096;-46
2023/12/11 13:24:18;;;;;;;;;;;;;;;1.67;100.00;100113.30;109640;1273;22463;-51
2023/12/11 13:26:45;;;;;;;;;;;;;;;1.65;100.00;100115.82;109619;1273;22990;-51
2023/12/11 13:29:12;;;;;;;;;;;;;;;1.62;100.00;100118.48;109658;1278;22429;-51
2023/12/11 13:31:39;;;;;;;;;;;;;;;1.60;100.00;100116.00;109691;1277;22992;-50
2023/12/11 13:34:06;;;;;;;;;;;;;;;1.58;100.00;100121.63;109741;1272;22657;-51
2023/12/11 13:36:33;;;;;;;;;;;;;;;1.56;100.00;100126.20;109796;1279;23222;-53
2023/12/11 13:38:59;;;;;;;;;;;;;;;1.53;100.00;100127.48;109784;1272;22414;-51
2023/12/11 13:41:26;;;;;;;;;;;;;;;1.51;100.00;100127.91;109870;1269;23021;-51
2023/12/11 13:43:53;;;;;;;;;;;;;;;1.49;100.00;100127.34;109963;1275;22498;-51
2023/12/11 13:46:19;;;;;;;;;;;;;;;1.50;100.00;100123.91;109967;1264;22444;-46
2023/12/11 13:48:46;;;;;;;;;;;;;;;1.51;100.00;100118.97;108663;1279;22505;-47
2023/12/11 13:51:13;;;;;;;;;;;;;;;1.52;100.00;100118.52;110018;1279;23237;-47
2023/12/11 13:53:40;;;;;;;;;;;;;;;1.54;100.00;100117.36;109832;1273;22529;-46
2023/12/11 13:56:07;;;;;;;;;;;;;;;1.55;100.00;100117.90;107904;1279;22527;-47
2023/12/11 13:58:34;;;;;;;;;;;;;;;1.55;100.00;100120.65;108608;1276;22515;-51
2023/12/11 14:01:01;;;;;;;;;;;;;;;1.52;100.00;100120.59;109981;1279;22509;-45
2023/12/11 14:03:29;;;;;;;;;;;;;;;1.51;100.00;100116.75;109357;1279;23315;-46
2023/12/11 14:05:57;;;;;;;;;;;;;;;1.49;100.00;100112.89;109994;1279;22922;-47
2023/12/11 14:08:24;;;;;;;;;;;;;;;1.46;100.00;100111.27;109748;1279;22559;-47
2023/12/11 14:10:52;;;;;;;;;;;;;;;1.43;100.00;100111.30;109426;1279;22513;-46
2023/12/11 14:13:19;;;;;;;;;;;;;;;1.39;100.00;100103.63;110066;1265;22517;-45
2023/12/11 14:15:46;;;;;;;;;;;;;;;1.37;100.00;100102.86;110061;1276;22504;-46
2023/12/11 14:18:13;;;;;;;;;;;;;;;1.36;100.00;100103.34;109812;1276;22513;-52
2023/12/11 14:20:42;;;;;;;;;;;;;;;1.35;100.00;100103.15;109777;1277;22512;-51
2023/12/11 14:23:09;;;;;;;;;;;;;;;1.33;100.00;100102.76;109946;1279;22583;-49
2023/12/11 14:25:37;;;;;;;;;;;;;;;1.33;100.00;100102.39;109225;1280;22491;-50
2023/12/11 14:28:04;;;;;;;;;;;;;;;1.33;100.00;100095.85;109533;1279;22671;-50
2023/12/11 14:30:37;;;;;;;;;;;;;;;1.31;100.00;100094.77;109864;1272;23709;-46
2023/12/11 14:33:04;;;;;;;;;;;;;;;1.31;100.00;100089.08;109936;1279;22434;-51
2023/12/11 14:35:31;;;;;;;;;;;;;;;1.32;100.00;100086.38;109999;1279;22421;-51
2023/12/11 14:37:58;;;;;;;;;;;;;;;1.33;100.00;100086.91;109990;1279;22422;-52
2023/12/11 14:40:25;;;;;;;;;;;;;;;1.33;100.00;100083.31;109037;1279;23082;-51
2023/12/11 14:42:52;;;;;;;;;;;;;;;1.32;100.00;100083.80;109991;1279;23196;-47
2023/12/11 14:45:20;;;;;;;;;;;;;;;1.32;100.00;100078.81;109975;1279;23414;-51
